createdAt,value
2022-10-22T00:00:46.580Z,10.40
2022-10-22T00:03:14.257Z,10.50
2022-10-22T00:05:41.415Z,10.40
2022-10-22T00:08:08.753Z,10.50
2022-10-22T00:10:38.785Z,10.50
2022-10-22T00:13:05.996Z,10.50
2022-10-22T00:15:33.328Z,10.40
2022-10-22T00:18:00.471Z,10.40
2022-10-22T00:20:28.007Z,10.40
2022-10-22T00:22:55.241Z,10.30
2022-10-22T00:25:22.395Z,10.30
2022-10-22T00:27:49.743Z,10.20
2022-10-22T00:30:16.929Z,10.20
2022-10-22T00:32:44.658Z,10.10
2022-10-22T00:35:11.748Z,10.10
2022-10-22T00:37:39.404Z,10.10
2022-10-22T00:40:07.422Z,10.10
2022-10-22T00:42:34.908Z,10.00
2022-10-22T00:45:22.075Z,10.00
2022-10-22T00:48:07.507Z,10.00
2022-10-22T00:50:57.092Z,10.00
2022-10-22T00:53:31.531Z,9.90
2022-10-22T00:55:58.943Z,9.90
2022-10-22T00:58:29.483Z,9.80
2022-10-22T01:00:57.568Z,9.80
2022-10-22T01:03:25.278Z,9.80
2022-10-22T01:05:57.235Z,9.80
2022-10-22T01:09:04.317Z,9.80
2022-10-22T01:11:47.455Z,9.80
2022-10-22T01:14:22.643Z,9.80
2022-10-22T01:17:09.771Z,9.80
2022-10-22T01:19:44.686Z,9.80
2022-10-22T01:22:11.810Z,9.80
2022-10-22T01:25:15.321Z,9.70
2022-10-22T01:27:52.314Z,9.80
2022-10-22T01:30:20.385Z,9.70
2022-10-22T01:32:52.441Z,9.70
2022-10-22T01:35:26.492Z,9.70
2022-10-22T01:37:58.299Z,9.70
2022-10-22T01:40:27.524Z,9.70
2022-10-22T01:42:57.621Z,9.70
2022-10-22T01:45:25.181Z,9.70
2022-10-22T01:47:53.334Z,9.70
2022-10-22T01:50:41.182Z,9.70
2022-10-22T01:53:24.722Z,9.60
2022-10-22T01:56:16.938Z,9.60
2022-10-22T01:59:15.954Z,9.50
2022-10-22T02:02:09.100Z,9.60
2022-10-22T02:04:41.298Z,9.50
2022-10-22T02:07:11.614Z,9.50
2022-10-22T02:09:40.508Z,9.40
2022-10-22T02:12:09.469Z,9.30
2022-10-22T02:14:39.708Z,9.30
2022-10-22T02:17:11.055Z,9.30
2022-10-22T02:19:46.895Z,9.30
2022-10-22T02:22:14.277Z,9.40
2022-10-22T02:24:41.788Z,9.30
2022-10-22T02:27:24.218Z,9.30
2022-10-22T02:30:12.866Z,9.30
2022-10-22T02:32:59.891Z,9.30
2022-10-22T02:35:29.136Z,9.20
2022-10-22T02:37:59.156Z,9.20
2022-10-22T02:40:28.021Z,9.20
2022-10-22T02:42:55.257Z,9.10
2022-10-22T02:45:23.014Z,9.00
2022-10-22T02:47:50.386Z,9.00
2022-10-22T02:50:17.782Z,9.00
2022-10-22T02:52:45.038Z,9.00
2022-10-22T02:55:12.140Z,9.00
2022-10-22T02:57:39.912Z,8.90
2022-10-22T03:00:08.155Z,8.90
2022-10-22T03:02:35.899Z,8.90
2022-10-22T03:05:04.260Z,8.90
2022-10-22T03:07:31.372Z,8.90
2022-10-22T03:09:58.741Z,9.00
2022-10-22T03:12:26.187Z,8.90
2022-10-22T03:14:53.400Z,9.00
2022-10-22T03:17:20.597Z,9.00
2022-10-22T03:19:47.841Z,9.00
2022-10-22T03:22:22.047Z,9.00
2022-10-22T03:24:53.009Z,9.00
2022-10-22T03:27:22.147Z,9.00
2022-10-22T03:29:51.887Z,9.00
2022-10-22T03:32:19.606Z,9.10
2022-10-22T03:34:46.860Z,9.00
2022-10-22T03:37:14.670Z,9.00
2022-10-22T03:39:42.022Z,9.10
2022-10-22T03:42:09.934Z,9.10
2022-10-22T03:44:38.445Z,9.10
2022-10-22T03:47:06.340Z,9.10
2022-10-22T03:49:33.881Z,9.00
2022-10-22T03:52:09.849Z,9.00
2022-10-22T03:57:06.530Z,8.90
2022-10-22T03:59:38.008Z,9.00
2022-10-22T04:02:05.601Z,9.00
2022-10-22T04:04:33.286Z,8.90
2022-10-22T04:07:00.492Z,8.90
2022-10-22T04:09:27.907Z,9.00
2022-10-22T04:11:55.102Z,8.90
2022-10-22T04:14:22.361Z,8.90
2022-10-22T04:16:49.870Z,8.90
2022-10-22T04:19:17.232Z,8.90
2022-10-22T04:21:44.723Z,8.90
2022-10-22T04:24:11.821Z,8.80
2022-10-22T04:26:39.274Z,8.90
2022-10-22T04:29:11.773Z,8.90
2022-10-22T04:31:42.363Z,8.90
2022-10-22T04:34:09.606Z,8.90
2022-10-22T04:36:36.736Z,8.90
2022-10-22T04:39:05.414Z,8.90
2022-10-22T04:41:35.685Z,8.90
2022-10-22T04:44:04.594Z,8.90
2022-10-22T04:46:34.307Z,8.90
2022-10-22T04:49:04.059Z,8.80
2022-10-22T04:51:31.762Z,8.90
2022-10-22T04:53:59.329Z,8.80
2022-10-22T04:56:29.947Z,8.80
2022-10-22T04:58:59.731Z,8.80
2022-10-22T05:01:31.195Z,8.80
2022-10-22T05:04:00.908Z,8.80
2022-10-22T05:06:29.428Z,8.80
2022-10-22T05:08:59.506Z,8.80
2022-10-22T05:11:29.581Z,8.70
2022-10-22T05:13:58.467Z,8.80
2022-10-22T05:16:26.275Z,8.80
2022-10-22T05:18:53.710Z,8.80
2022-10-22T05:21:21.659Z,8.80
2022-10-22T05:23:50.336Z,8.80
2022-10-22T05:26:20.576Z,8.90
2022-10-22T05:28:50.027Z,8.90
2022-10-22T05:31:18.339Z,8.80
2022-10-22T05:33:46.925Z,8.80
2022-10-22T05:36:18.025Z,8.80
2022-10-22T05:38:45.521Z,8.90
2022-10-22T05:41:16.891Z,8.80
2022-10-22T05:43:44.617Z,8.90
2022-10-22T05:46:21.236Z,8.90
2022-10-22T05:48:52.337Z,9.00
2022-10-22T05:51:20.432Z,9.00
2022-10-22T05:53:52.844Z,9.10
2022-10-22T05:56:20.260Z,9.10
2022-10-22T05:58:48.000Z,9.20
2022-10-22T06:01:18.272Z,9.30
2022-10-22T06:03:46.949Z,9.40
2022-10-22T06:06:18.716Z,9.40
2022-10-22T06:08:49.083Z,9.40
2022-10-22T06:11:18.035Z,9.40
2022-10-22T06:13:46.994Z,9.50
2022-10-22T06:16:15.407Z,9.50
2022-10-22T06:18:43.341Z,9.60
2022-10-22T06:21:13.513Z,9.60
2022-10-22T06:23:41.587Z,9.60
2022-10-22T06:26:09.752Z,9.70
2022-10-22T06:28:37.099Z,9.70
2022-10-22T06:31:05.263Z,9.70
2022-10-22T06:33:34.401Z,9.70
2022-10-22T06:36:07.798Z,9.70
2022-10-22T06:38:35.502Z,9.80
2022-10-22T06:41:05.365Z,9.80
2022-10-22T06:43:32.546Z,10.00
2022-10-22T06:46:01.871Z,10.00
2022-10-22T06:48:29.166Z,10.20
2022-10-22T06:50:56.405Z,10.20
2022-10-22T06:53:23.626Z,10.30
2022-10-22T06:55:50.950Z,10.30
2022-10-22T06:58:18.868Z,10.40
2022-10-22T07:00:46.058Z,10.40
2022-10-22T07:03:14.059Z,10.40
2022-10-22T07:05:42.325Z,10.40
2022-10-22T07:08:09.531Z,10.50
2022-10-22T07:10:36.895Z,10.60
2022-10-22T07:13:04.228Z,10.70
2022-10-22T07:15:31.527Z,10.80
2022-10-22T07:17:59.425Z,11.00
2022-10-22T07:20:26.566Z,11.10
2022-10-22T07:22:54.223Z,11.30
2022-10-22T07:25:21.352Z,11.40
2022-10-22T07:27:48.862Z,11.50
2022-10-22T07:30:15.978Z,11.70
2022-10-22T07:32:43.167Z,11.90
2022-10-22T07:35:10.598Z,12.00
2022-10-22T07:37:37.862Z,12.10
2022-10-22T07:40:05.771Z,12.10
2022-10-22T07:42:32.893Z,12.20
2022-10-22T07:45:00.121Z,12.30
2022-10-22T07:47:27.242Z,12.50
2022-10-22T07:49:54.742Z,12.60
2022-10-22T07:52:22.338Z,12.60
2022-10-22T07:54:49.576Z,12.70
2022-10-22T07:57:17.266Z,12.70
2022-10-22T07:59:44.413Z,12.80
2022-10-22T08:02:13.156Z,12.70
2022-10-22T08:04:41.019Z,12.70
2022-10-22T08:07:08.309Z,12.70
2022-10-22T08:09:36.082Z,12.80
2022-10-22T08:12:03.497Z,12.90
2022-10-22T08:14:31.402Z,12.90
2022-10-22T08:16:58.783Z,13.00
2022-10-22T08:19:26.029Z,13.10
2022-10-22T08:21:53.414Z,13.30
2022-10-22T08:24:20.777Z,13.30
2022-10-22T08:26:48.199Z,13.30
2022-10-22T08:29:15.431Z,13.20
2022-10-22T08:31:42.846Z,13.20
2022-10-22T08:34:10.375Z,13.10
2022-10-22T08:36:37.580Z,13.10
2022-10-22T08:39:05.235Z,13.10
2022-10-22T08:41:43.505Z,13.10
2022-10-22T08:44:31.562Z,13.20
2022-10-22T08:47:23.481Z,13.10
2022-10-22T08:49:53.299Z,13.10
2022-10-22T08:52:20.956Z,13.00
2022-10-22T08:54:59.501Z,13.00
2022-10-22T09:00:11.204Z,13.00
2022-10-22T09:02:39.845Z,13.00
2022-10-22T09:05:18.657Z,13.00
2022-10-22T09:07:50.174Z,13.00
2022-10-22T09:10:20.285Z,13.00
2022-10-22T09:12:48.957Z,13.10
2022-10-22T09:15:18.738Z,13.00
2022-10-22T09:17:55.015Z,13.10
2022-10-22T09:20:32.845Z,13.00
2022-10-22T09:23:27.586Z,13.00
2022-10-22T09:25:57.259Z,13.00
2022-10-22T09:28:24.659Z,12.90
2022-10-22T09:30:52.214Z,12.80
2022-10-22T09:33:26.340Z,12.80
2022-10-22T09:35:58.069Z,12.80
2022-10-22T09:38:31.396Z,12.80
2022-10-22T09:41:00.394Z,12.80
2022-10-22T09:43:27.451Z,12.80
2022-10-22T09:46:01.604Z,12.80
2022-10-22T09:48:39.344Z,12.70
2022-10-22T09:51:24.399Z,12.70
2022-10-22T09:54:01.993Z,12.70
2022-10-22T09:56:36.464Z,12.70
2022-10-22T09:59:03.668Z,12.80
2022-10-22T10:01:34.857Z,12.80
2022-10-22T10:04:09.568Z,12.90
2022-10-22T10:06:40.619Z,13.00
2022-10-22T10:09:25.602Z,13.10
2022-10-22T10:11:57.395Z,13.20
2022-10-22T10:14:45.455Z,13.30
2022-10-22T10:17:30.927Z,13.30
2022-10-22T10:20:39.384Z,13.30
2022-10-22T10:23:24.588Z,13.30
2022-10-22T10:26:03.818Z,13.30
2022-10-22T10:28:51.050Z,13.40
2022-10-22T10:31:19.411Z,13.50
2022-10-22T10:34:07.491Z,13.60
2022-10-22T10:36:52.393Z,13.70
2022-10-22T10:39:25.622Z,13.70
2022-10-22T10:42:12.820Z,13.70
2022-10-22T10:44:48.675Z,13.70
2022-10-22T10:47:37.105Z,13.70
2022-10-22T10:50:25.184Z,13.70
2022-10-22T10:53:07.249Z,13.60
2022-10-22T10:55:47.471Z,13.70
2022-10-22T10:58:42.879Z,13.60
2022-10-22T11:01:24.954Z,13.60
2022-10-22T11:04:06.058Z,13.70
2022-10-22T11:06:36.439Z,13.90
2022-10-22T11:09:11.670Z,14.10
2022-10-22T11:11:51.637Z,14.20
2022-10-22T11:14:25.197Z,14.40
2022-10-22T11:17:02.030Z,14.60
2022-10-22T11:19:50.961Z,14.80
2022-10-22T11:22:25.892Z,14.90
2022-10-22T11:25:13.936Z,14.90
2022-10-22T11:27:54.349Z,15.00
2022-10-22T11:30:24.969Z,15.10
2022-10-22T11:32:57.544Z,15.20
2022-10-22T11:35:31.404Z,15.20
2022-10-22T11:38:00.279Z,15.30
2022-10-22T11:40:28.863Z,15.40
2022-10-22T11:43:08.489Z,15.50
2022-10-22T11:45:39.581Z,15.60
2022-10-22T11:48:27.450Z,15.70
2022-10-22T11:51:00.800Z,15.90
2022-10-22T11:53:34.747Z,16.00
2022-10-22T11:56:24.081Z,16.10
2022-10-22T11:58:55.363Z,16.20
2022-10-22T12:01:29.485Z,16.20
2022-10-22T12:03:59.185Z,16.30
2022-10-22T12:06:28.735Z,16.30
2022-10-22T12:09:03.228Z,16.30
2022-10-22T12:11:49.679Z,16.30
2022-10-22T12:14:17.077Z,16.20
2022-10-22T12:16:57.187Z,16.20
2022-10-22T12:19:33.270Z,16.10
2022-10-22T12:22:06.875Z,16.10
2022-10-22T12:24:41.093Z,16.10
2022-10-22T12:27:23.991Z,16.10
2022-10-22T12:30:00.701Z,16.10
2022-10-22T12:32:41.494Z,16.00
2022-10-22T12:35:17.372Z,16.00
2022-10-22T12:37:44.651Z,15.90
2022-10-22T12:40:30.809Z,15.90
2022-10-22T12:43:01.194Z,16.00
2022-10-22T12:45:32.906Z,16.00
2022-10-22T12:48:04.212Z,16.00
2022-10-22T12:50:38.252Z,16.10
2022-10-22T12:53:07.290Z,16.10
2022-10-22T12:55:35.901Z,16.20
2022-10-22T12:58:06.816Z,16.20
2022-10-22T13:00:36.510Z,16.20
2022-10-22T13:03:07.015Z,16.30
2022-10-22T13:05:39.282Z,16.30
2022-10-22T13:08:11.615Z,16.30
2022-10-22T13:10:41.724Z,16.40
2022-10-22T13:13:31.934Z,16.40
2022-10-22T13:16:14.142Z,16.40
2022-10-22T13:18:41.879Z,16.30
2022-10-22T13:21:27.169Z,16.30
2022-10-22T13:24:00.376Z,16.30
2022-10-22T13:26:37.730Z,16.30
2022-10-22T13:29:12.760Z,16.30
2022-10-22T13:31:47.175Z,16.30
2022-10-22T13:34:18.939Z,16.20
2022-10-22T13:36:46.932Z,16.20
2022-10-22T13:39:21.883Z,16.10
2022-10-22T13:41:51.341Z,16.00
2022-10-22T13:44:19.930Z,16.00
2022-10-22T13:46:48.840Z,16.00
2022-10-22T13:49:20.441Z,15.80
2022-10-22T13:51:48.057Z,15.80
2022-10-22T13:54:19.132Z,15.70
2022-10-22T13:56:47.030Z,15.70
2022-10-22T13:59:16.209Z,15.70
2022-10-22T14:01:46.350Z,15.60
2022-10-22T14:04:15.297Z,15.50
2022-10-22T14:06:42.794Z,15.40
2022-10-22T14:09:15.481Z,15.40
2022-10-22T14:11:43.277Z,15.30
2022-10-22T14:14:14.476Z,15.30
2022-10-22T14:16:42.405Z,15.20
2022-10-22T14:19:16.741Z,15.10
2022-10-22T14:21:44.555Z,15.10
2022-10-22T14:24:13.226Z,15.10
2022-10-22T14:26:42.022Z,15.10
2022-10-22T14:29:10.667Z,15.00
2022-10-22T14:34:15.140Z,15.00
2022-10-22T14:36:44.124Z,14.90
2022-10-22T14:39:11.653Z,14.90
2022-10-22T14:41:39.301Z,14.90
2022-10-22T14:44:06.924Z,14.90
2022-10-22T14:46:34.294Z,14.90
2022-10-22T14:49:03.138Z,14.90
2022-10-22T14:51:31.419Z,14.80
2022-10-22T14:53:58.750Z,14.80
2022-10-22T14:56:26.427Z,14.80
2022-10-22T14:58:55.978Z,14.80
2022-10-22T15:01:25.397Z,14.80
2022-10-22T15:03:53.928Z,14.70
2022-10-22T15:06:23.869Z,14.70
2022-10-22T15:08:53.949Z,14.60
2022-10-22T15:11:23.532Z,14.60
2022-10-22T15:13:53.396Z,14.60
2022-10-22T15:16:20.732Z,14.60
2022-10-22T15:18:48.907Z,14.60
2022-10-22T15:21:19.717Z,14.60
2022-10-22T15:23:48.592Z,14.50
2022-10-22T15:26:16.903Z,14.60
2022-10-22T15:28:45.477Z,14.50
2022-10-22T15:31:14.657Z,14.50
2022-10-22T15:33:43.589Z,14.50
2022-10-22T15:36:13.942Z,14.50
2022-10-22T15:38:41.306Z,14.50
2022-10-22T15:41:11.014Z,14.50
2022-10-22T15:43:38.946Z,14.50
2022-10-22T15:46:10.745Z,14.50
2022-10-22T15:48:38.663Z,14.50
2022-10-22T15:51:14.519Z,14.60
2022-10-22T15:53:42.626Z,14.50
2022-10-22T15:56:12.208Z,14.50
2022-10-22T15:58:39.758Z,14.40
2022-10-22T16:01:08.847Z,14.40
2022-10-22T16:03:36.202Z,14.40
2022-10-22T16:06:05.112Z,14.30
2022-10-22T16:08:32.738Z,14.30
2022-10-22T16:11:00.917Z,14.30
2022-10-22T16:13:28.209Z,14.30
2022-10-22T16:15:55.729Z,14.20
2022-10-22T16:18:23.742Z,14.20
2022-10-22T16:20:51.200Z,14.20
2022-10-22T16:23:19.305Z,14.20
2022-10-22T16:25:46.889Z,14.30
2022-10-22T16:28:14.584Z,14.30
2022-10-22T16:30:42.112Z,14.30
2022-10-22T16:33:10.349Z,14.30
2022-10-22T16:35:42.378Z,14.30
2022-10-22T16:38:11.005Z,14.30
2022-10-22T16:40:38.729Z,14.20
2022-10-22T16:43:06.296Z,14.20
2022-10-22T16:45:33.463Z,14.20
2022-10-22T16:48:00.766Z,14.10
2022-10-22T16:50:28.290Z,14.10
2022-10-22T16:52:55.447Z,14.10
2022-10-22T16:55:22.579Z,14.00
2022-10-22T16:57:52.295Z,13.90
2022-10-22T17:00:20.966Z,13.90
2022-10-22T17:02:54.491Z,13.80
2022-10-22T17:05:22.150Z,13.70
2022-10-22T17:07:49.574Z,13.70
2022-10-22T17:10:19.826Z,13.60
2022-10-22T17:12:47.807Z,13.50
2022-10-22T17:15:15.409Z,13.40
2022-10-22T17:17:42.565Z,13.30
2022-10-22T17:20:11.831Z,13.20
2022-10-22T17:22:39.734Z,13.10
2022-10-22T17:25:31.885Z,12.90
2022-10-22T17:27:59.264Z,12.90
2022-10-22T17:30:28.411Z,12.80
2022-10-22T17:32:55.735Z,12.70
2022-10-22T17:35:23.278Z,12.70
2022-10-22T17:37:50.370Z,12.60
2022-10-22T17:40:17.470Z,12.50
2022-10-22T17:42:45.562Z,12.40
2022-10-22T17:45:12.911Z,12.40
2022-10-22T17:47:40.319Z,12.40
2022-10-22T17:50:08.662Z,12.30
2022-10-22T17:52:36.530Z,12.20
2022-10-22T17:55:04.096Z,12.10
2022-10-22T17:57:31.238Z,12.10
2022-10-22T17:59:58.364Z,12.00
2022-10-22T18:02:25.763Z,12.00
2022-10-22T18:04:53.424Z,11.90
2022-10-22T18:07:21.122Z,11.90
2022-10-22T18:09:49.839Z,12.00
2022-10-22T18:12:19.137Z,12.00
2022-10-22T18:14:47.577Z,12.00
2022-10-22T18:19:42.034Z,12.00
2022-10-22T18:22:09.585Z,12.00
2022-10-22T18:24:37.208Z,12.00
2022-10-22T18:27:04.620Z,12.00
2022-10-22T18:29:31.829Z,12.00
2022-10-22T18:31:58.924Z,12.00
2022-10-22T18:34:26.417Z,12.00
2022-10-22T18:36:53.562Z,12.00
2022-10-22T18:39:20.878Z,11.90
2022-10-22T18:41:48.215Z,11.90
2022-10-22T18:44:16.489Z,11.90
2022-10-22T18:46:43.601Z,11.90
2022-10-22T18:49:18.242Z,11.80
2022-10-22T18:51:48.676Z,11.80
2022-10-22T18:54:23.183Z,11.80
2022-10-22T18:56:52.817Z,11.70
2022-10-22T18:59:23.707Z,11.60
2022-10-22T19:01:53.229Z,11.60
2022-10-22T19:04:20.800Z,11.50
2022-10-22T19:06:48.241Z,11.40
2022-10-22T19:09:16.557Z,11.30
2022-10-22T19:11:46.015Z,11.30
2022-10-22T19:14:14.959Z,11.30
2022-10-22T19:16:42.259Z,11.10
2022-10-22T19:19:09.539Z,11.10
2022-10-22T19:21:38.408Z,11.00
2022-10-22T19:24:06.680Z,11.00
2022-10-22T19:26:34.406Z,11.00
2022-10-22T19:29:01.993Z,11.00
2022-10-22T19:31:31.374Z,10.90
2022-10-22T19:34:01.031Z,10.90
2022-10-22T19:36:30.671Z,10.90
2022-10-22T19:38:58.655Z,10.80
2022-10-22T19:41:27.176Z,10.60
2022-10-22T19:43:55.504Z,10.60
2022-10-22T19:46:23.787Z,10.50
2022-10-22T19:48:52.509Z,10.50
2022-10-22T19:51:22.429Z,10.50
2022-10-22T19:53:50.347Z,10.50
2022-10-22T19:56:20.157Z,10.50
2022-10-22T19:58:47.938Z,10.50
2022-10-22T20:01:17.727Z,10.50
2022-10-22T20:03:46.075Z,10.40
2022-10-22T20:06:15.129Z,10.40
2022-10-22T20:08:42.473Z,10.30
2022-10-22T20:11:15.603Z,10.30
2022-10-22T20:13:45.406Z,10.30
2022-10-22T20:16:17.287Z,10.20
2022-10-22T20:18:44.475Z,10.20
2022-10-22T20:21:14.790Z,10.10
2022-10-22T20:23:42.942Z,10.10
2022-10-22T20:26:10.495Z,10.00
2022-10-22T20:28:38.569Z,10.00
2022-10-22T20:31:16.142Z,10.00
2022-10-22T20:33:43.658Z,10.00
2022-10-22T20:36:16.727Z,9.90
2022-10-22T20:38:45.453Z,9.90
2022-10-22T20:41:15.725Z,9.90
2022-10-22T20:43:45.656Z,9.90
2022-10-22T20:46:19.872Z,10.00
2022-10-22T20:48:47.201Z,10.00
2022-10-22T20:51:14.309Z,10.00
2022-10-22T20:53:42.143Z,10.00
2022-10-22T20:56:10.818Z,10.00
2022-10-22T20:58:39.329Z,10.00
2022-10-22T21:01:11.021Z,10.10
2022-10-22T21:03:38.295Z,10.10
2022-10-22T21:06:06.368Z,10.10
2022-10-22T21:08:33.598Z,10.00
2022-10-22T21:11:00.667Z,10.00
2022-10-22T21:13:27.782Z,10.00
2022-10-22T21:15:55.068Z,10.00
2022-10-22T21:18:22.104Z,10.00
2022-10-22T21:20:49.425Z,10.00
2022-10-22T21:23:16.634Z,9.90
2022-10-22T21:25:53.725Z,9.90
2022-10-22T21:28:21.187Z,9.80
2022-10-22T21:30:48.554Z,9.80
2022-10-22T21:33:15.810Z,9.70
2022-10-22T21:35:52.060Z,9.70
2022-10-22T21:38:20.102Z,9.70
2022-10-22T21:40:47.691Z,9.70
2022-10-22T21:43:15.856Z,9.70
2022-10-22T21:45:43.825Z,9.70
2022-10-22T21:48:13.827Z,9.60
2022-10-22T21:50:42.423Z,9.60
2022-10-22T21:53:12.076Z,9.50
2022-10-22T21:55:41.648Z,9.40
2022-10-22T21:58:09.215Z,9.40
2022-10-22T22:00:36.483Z,9.40
2022-10-22T22:03:06.123Z,9.40
2022-10-22T22:05:33.185Z,9.30
2022-10-22T22:08:00.428Z,9.40
2022-10-22T22:10:27.740Z,9.30
2022-10-22T22:12:55.482Z,9.30
2022-10-22T22:15:22.499Z,9.30
2022-10-22T22:17:50.188Z,9.30
2022-10-22T22:20:17.490Z,9.20
2022-10-22T22:22:44.899Z,9.20
2022-10-22T22:25:11.949Z,9.20
2022-10-22T22:27:39.293Z,9.10
2022-10-22T22:30:07.235Z,9.10
2022-10-22T22:32:35.439Z,9.10
2022-10-22T22:35:02.594Z,9.10
2022-10-22T22:37:30.084Z,9.00
2022-10-22T22:39:57.245Z,9.00
2022-10-22T22:42:24.396Z,9.00
2022-10-22T22:44:54.427Z,9.00
2022-10-22T22:47:22.067Z,9.10
2022-10-22T22:49:49.147Z,9.00
2022-10-22T22:52:16.240Z,9.00
2022-10-22T22:54:43.339Z,9.00
2022-10-22T22:57:10.575Z,9.10
2022-10-22T22:59:37.778Z,9.10
2022-10-22T23:02:04.880Z,9.10
2022-10-22T23:04:32.128Z,9.10
2022-10-22T23:06:59.479Z,9.00
2022-10-22T23:09:26.670Z,9.10
2022-10-22T23:11:53.862Z,9.00
2022-10-22T23:14:21.073Z,9.00
2022-10-22T23:16:51.479Z,9.00
2022-10-22T23:19:21.634Z,9.00
2022-10-22T23:21:51.769Z,9.00
2022-10-22T23:24:22.439Z,8.90
2022-10-22T23:26:51.303Z,8.80
2022-10-22T23:29:27.952Z,8.80
2022-10-22T23:31:55.758Z,8.80
2022-10-22T23:34:25.200Z,8.80
2022-10-22T23:36:52.962Z,8.70
2022-10-22T23:39:23.212Z,8.80
2022-10-22T23:41:51.171Z,8.80
2022-10-22T23:44:18.313Z,8.70
2022-10-22T23:46:45.837Z,8.70
2022-10-22T23:49:13.445Z,8.70
2022-10-22T23:51:41.252Z,8.70
2022-10-22T23:54:12.678Z,8.60
2022-10-22T23:56:39.900Z,8.60
2022-10-22T23:59:08.219Z,8.50
